Time;durP1;ratioP1;P1;durP2;ratioP2;P2;SDS_P1;SDS_P2;PMS_P1;PMS_P2;Temp;Humidity;BMP_temperature;BMP_pressure;BME280_temperature;BME280_humidity;BME280_pressure;Samples;Min_cycle;Max_cycle;Signal;HPM_P1;HPM_P2
2021/03/16 00:03:33;;;;;;;6.38;3.85;;;2.40;99.90;;;;;;8326472;28;20156;-63
2021/03/16 00:07:34;;;;;;;381.75;349.55;;;2.30;99.90;;;;;;8337724;28;20029;-63
2021/03/16 00:11:34;;;;;;;6.93;4.03;;;2.40;99.90;;;;;;8359245;28;20025;-63
2021/03/16 00:15:35;;;;;;;5.45;3.30;;;2.40;99.90;;;;;;8360356;28;20024;-63
2021/03/16 00:19:35;;;;;;;6.82;3.50;;;2.30;99.90;;;;;;8360422;28;20044;-63
2021/03/16 00:23:36;;;;;;;7.85;3.88;;;2.30;99.90;;;;;;8360015;28;20051;-63
2021/03/16 00:27:37;;;;;;;6.95;3.85;;;2.20;99.90;;;;;;8360151;28;20716;-63
2021/03/16 00:31:37;;;;;;;6.43;3.95;;;2.40;99.90;;;;;;8359690;28;20024;-63
2021/03/16 00:35:38;;;;;;;9.05;4.07;;;2.50;99.90;;;;;;8359725;28;20028;-63
2021/03/16 00:39:38;;;;;;;8.60;3.92;;;2.60;99.90;;;;;;8360215;28;20057;-63
2021/03/16 00:43:39;;;;;;;6.57;4.25;;;2.50;99.90;;;;;;8359663;28;20403;-63
2021/03/16 00:47:39;;;;;;;7.55;4.32;;;2.50;99.90;;;;;;8358747;28;20028;-63
2021/03/16 00:51:40;;;;;;;8.23;4.53;;;2.60;99.90;;;;;;8359606;28;20028;-62
2021/03/16 00:55:41;;;;;;;7.75;3.92;;;2.60;99.90;;;;;;8359718;28;20460;-63
2021/03/16 00:59:41;;;;;;;7.45;3.78;;;2.60;99.90;;;;;;8345179;28;20464;-62
2021/03/16 01:03:42;;;;;;;3.45;1.73;;;2.40;99.90;;;;;;8324933;28;20017;-62
2021/03/16 01:07:42;;;;;;;7.60;3.78;;;2.50;99.90;;;;;;8342522;28;20036;-63
2021/03/16 01:11:43;;;;;;;8.27;4.03;;;2.50;99.90;;;;;;8310606;28;20072;-63
2021/03/16 01:15:44;;;;;;;8.43;4.40;;;2.40;99.90;;;;;;8294503;28;20022;-63
2021/03/16 01:19:45;;;;;;;6.45;3.95;;;2.50;99.90;;;;;;8331887;28;20037;-63
2021/03/16 01:23:46;;;;;;;8.73;3.95;;;2.40;99.90;;;;;;8330453;28;20138;-63
2021/03/16 01:27:46;;;;;;;3.53;2.17;;;2.40;99.90;;;;;;8330488;28;20036;-63
2021/03/16 01:31:47;;;;;;;8.15;3.97;;;2.50;99.90;;;;;;8330051;28;20490;-63
2021/03/16 01:35:47;;;;;;;7.57;4.38;;;2.40;99.90;;;;;;8330129;28;20103;-63
2021/03/16 01:39:48;;;;;;;7.88;3.15;;;2.30;99.90;;;;;;8330409;28;20033;-63
2021/03/16 01:43:49;;;;;;;7.03;4.20;;;2.30;99.90;;;;;;8330060;28;20112;-63
2021/03/16 01:47:50;;;;;;;6.28;3.60;;;2.30;99.90;;;;;;8329925;28;20434;-63
2021/03/16 01:51:51;;;;;;;8.82;4.40;;;2.30;99.90;;;;;;8329893;28;20056;-62
2021/03/16 01:55:54;;;;;;;6.57;3.15;;;2.40;99.90;;;;;;8322407;28;20029;-62
2021/03/16 01:59:54;;;;;;;6.80;3.28;;;2.40;99.90;;;;;;8329682;28;20024;-62
2021/03/16 02:03:55;;;;;;;5.03;2.28;;;2.30;99.90;;;;;;8329137;28;20026;-63
2021/03/16 02:08:23;;;;;;;10.43;3.47;;;2.30;99.90;;;;;;8348202;28;20502;-62
2021/03/16 02:12:43;;;;;;;8.40;3.80;;;2.20;99.90;;;;;;8333063;28;20013;-62
2021/03/16 02:17:10;;;;;;;9.63;3.92;;;2.20;99.90;;;;;;8329418;28;20036;-63
2021/03/16 02:21:24;;;;;;;8.68;3.63;;;2.10;99.90;;;;;;8309919;28;549277;-63
2021/03/16 02:25:54;;;;;;;5.72;3.17;;;2.30;99.90;;;;;;8329650;28;20510;-63
2021/03/16 02:30:03;;;;;;;6.63;3.03;;;2.30;99.90;;;;;;8330282;28;20032;-63
2021/03/16 02:34:06;;;;;;;4.55;2.70;;;2.20;99.90;;;;;;8330293;28;20021;-63
2021/03/16 02:38:09;;;;;;;5.22;2.88;;;2.20;99.90;;;;;;8351106;28;20399;-63
2021/03/16 02:42:12;;;;;;;7.88;3.13;;;2.20;99.90;;;;;;8363122;28;20029;-63
2021/03/16 02:46:14;;;;;;;7.00;3.20;;;2.40;99.90;;;;;;8363094;28;20025;-63
2021/03/16 02:50:15;;;;;;;8.02;3.33;;;2.30;99.90;;;;;;8362951;28;20552;-63
2021/03/16 02:54:17;;;;;;;7.57;2.97;;;2.20;99.90;;;;;;8362851;28;20036;-63
2021/03/16 02:58:19;;;;;;;6.65;3.60;;;2.20;99.90;;;;;;8362914;28;20484;-62
2021/03/16 03:02:21;;;;;;;5.40;2.80;;;2.30;99.90;;;;;;8326017;28;20022;-62
2021/03/16 03:06:23;;;;;;;5.22;3.15;;;2.30;99.90;;;;;;8328443;28;20025;-62
2021/03/16 03:10:24;;;;;;;8.10;3.90;;;2.50;99.90;;;;;;8329460;28;20055;-62
2021/03/16 03:14:24;;;;;;;7.20;3.33;;;2.60;99.90;;;;;;8328878;28;20053;-63
2021/03/16 03:18:25;;;;;;;10.05;3.80;;;2.50;99.90;;;;;;8323057;28;20030;-63
2021/03/16 03:22:36;;;;;;;8.05;3.83;;;2.40;99.90;;;;;;8342789;22;20484;-70
2021/03/16 03:26:59;;;;;;;9.38;3.72;;;2.20;99.90;;;;;;8295139;28;20062;-69
2021/03/16 03:31:01;;;;;;;4.57;3.13;;;2.30;99.90;;;;;;8296535;28;20054;-69
2021/03/16 03:35:02;;;;;;;7.22;3.60;;;2.30;99.90;;;;;;8296129;28;20025;-69
2021/03/16 03:39:04;;;;;;;11.43;3.63;;;2.10;99.90;;;;;;8295945;28;20022;-69
2021/03/16 03:43:08;;;;;;;11.85;4.40;;;2.10;99.90;;;;;;8295887;28;20656;-70
2021/03/16 03:47:11;;;;;;;9.77;4.28;;;2.20;99.90;;;;;;8290819;28;20030;-70
2021/03/16 03:51:12;;;;;;;6.68;3.72;;;2.30;99.90;;;;;;8295836;28;20108;-69
2021/03/16 03:55:14;;;;;;;5.57;3.67;;;2.50;99.90;;;;;;8295266;28;20014;-69
2021/03/16 03:59:16;;;;;;;10.07;4.03;;;2.30;99.90;;;;;;8295479;28;20030;-69
2021/03/16 04:03:17;;;;;;;7.05;3.72;;;2.30;99.90;;;;;;8284298;28;20049;-70
2021/03/16 04:07:19;;;;;;;8.95;3.35;;;2.20;99.90;;;;;;8262807;28;20054;-69
2021/03/16 04:11:21;;;;;;;6.03;3.75;;;2.10;99.90;;;;;;8277854;28;20049;-70
2021/03/16 04:15:22;;;;;;;7.85;3.22;;;2.40;99.90;;;;;;8245243;28;20579;-69
2021/03/16 04:19:23;;;;;;;7.10;3.33;;;2.30;99.90;;;;;;8245352;28;20034;-69
2021/03/16 04:23:24;;;;;;;7.72;3.00;;;2.30;99.90;;;;;;8262515;28;20034;-70
2021/03/16 04:27:25;;;;;;;9.20;2.95;;;2.30;99.90;;;;;;8271728;28;20030;-69
2021/03/16 04:31:25;;;;;;;7.32;2.97;;;2.30;99.90;;;;;;8258842;28;20489;-70
2021/03/16 04:35:26;;;;;;;9.93;2.90;;;2.40;99.90;;;;;;8277463;28;20029;-70
2021/03/16 04:39:26;;;;;;;4.25;2.03;;;2.50;99.90;;;;;;8278188;28;20076;-69
2021/03/16 04:43:27;;;;;;;5.40;2.72;;;2.60;99.90;;;;;;8271339;28;20089;-70
2021/03/16 04:47:28;;;;;;;6.57;3.25;;;2.40;99.90;;;;;;8262385;28;20034;-70
2021/03/16 04:51:29;;;;;;;9.23;3.95;;;2.40;99.90;;;;;;8269128;28;20093;-70
2021/03/16 04:55:30;;;;;;;7.80;3.78;;;2.30;99.90;;;;;;8245626;28;20026;-69
2021/03/16 04:59:31;;;;;;;6.00;3.65;;;2.10;99.90;;;;;;8270112;28;20131;-69
2021/03/16 05:03:31;;;;;;;11.20;4.00;;;2.10;99.90;;;;;;8300642;28;20038;-69
2021/03/16 05:07:32;;;;;;;8.55;4.03;;;2.10;99.90;;;;;;8300709;28;20464;-70
2021/03/16 05:11:33;;;;;;;12.77;4.53;;;2.00;99.90;;;;;;8286933;28;20074;-70
2021/03/16 05:15:34;;;;;;;7.47;3.72;;;1.90;99.90;;;;;;8267587;28;20431;-69
2021/03/16 05:19:34;;;;;;;8.63;4.20;;;2.10;99.90;;;;;;8266847;28;20087;-70
2021/03/16 05:23:35;;;;;;;12.55;4.80;;;2.00;99.90;;;;;;8267774;28;20085;-69
2021/03/16 05:27:35;;;;;;;9.23;4.63;;;2.10;99.90;;;;;;8270142;28;20030;-70
2021/03/16 05:31:36;;;;;;;9.95;4.80;;;2.10;99.90;;;;;;8270220;28;20036;-70
2021/03/16 05:35:37;;;;;;;7.93;4.50;;;2.10;99.90;;;;;;8267628;28;20026;-69
2021/03/16 05:39:37;;;;;;;11.27;3.90;;;2.10;99.90;;;;;;8267688;28;20129;-70
2021/03/16 05:43:40;;;;;;;9.10;4.40;;;2.10;99.90;;;;;;8254233;28;20022;-69
2021/03/16 05:47:42;;;;;;;8.95;4.18;;;2.00;99.90;;;;;;8244471;28;20096;-69
2021/03/16 05:51:44;;;;;;;11.00;4.18;;;2.00;99.90;;;;;;8266297;28;20022;-69
2021/03/16 05:55:45;;;;;;;9.80;4.22;;;1.90;99.90;;;;;;8265794;28;20062;-70
2021/03/16 05:59:47;;;;;;;8.00;3.13;;;1.90;99.90;;;;;;8276495;28;20026;-69
2021/03/16 06:03:48;;;;;;;5.50;3.67;;;2.10;99.90;;;;;;8281161;28;20508;-70
2021/03/16 06:07:50;;;;;;;7.65;3.95;;;2.10;99.90;;;;;;8282027;28;20031;-70
2021/03/16 06:11:51;;;;;;;8.23;4.30;;;2.20;99.90;;;;;;8257965;28;20030;-70
2021/03/16 06:15:53;;;;;;;10.23;4.05;;;2.30;99.90;;;;;;8292937;28;20076;-71
2021/03/16 06:19:53;;;;;;;9.27;4.10;;;2.30;99.90;;;;;;8298620;28;20054;-71
2021/03/16 06:23:56;;;;;;;8.52;4.00;;;2.40;99.90;;;;;;8301927;28;20061;-70
2021/03/16 06:28:05;;;;;;;8.48;4.07;;;2.40;99.90;;;;;;8275735;28;20034;-70
2021/03/16 06:32:12;;;;;;;8.20;4.07;;;2.50;99.90;;;;;;8261226;28;20225;-73
2021/03/16 06:36:13;;;;;;;8.60;3.38;;;2.40;99.90;;;;;;8294248;28;20026;-68
2021/03/16 06:40:13;;;;;;;9.88;3.60;;;2.30;99.90;;;;;;8291815;28;20041;-70
2021/03/16 06:44:18;;;;;;;364.73;334.48;;;2.20;99.90;;;;;;8270942;28;20033;-67
2021/03/16 06:48:21;;;;;;;10.38;3.33;;;2.20;99.90;;;;;;8280729;28;20029;-68
2021/03/16 06:52:26;;;;;;;8.23;3.72;;;2.10;99.90;;;;;;8292010;28;20022;-68
2021/03/16 06:56:29;;;;;;;8.48;3.72;;;2.20;99.90;;;;;;8271738;28;20492;-68
2021/03/16 07:00:29;;;;;;;8.88;2.97;;;2.30;99.90;;;;;;8279017;28;20025;-68
2021/03/16 07:04:30;;;;;;;9.32;3.60;;;2.40;99.90;;;;;;8297549;28;20105;-67
2021/03/16 07:08:32;;;;;;;8.95;3.47;;;2.60;99.90;;;;;;8294718;28;20033;-68
2021/03/16 07:12:36;;;;;;;13.27;4.05;;;2.80;99.90;;;;;;8292735;28;20537;-68
2021/03/16 07:16:38;;;;;;;6.22;2.88;;;2.70;99.90;;;;;;8296329;28;20395;-68
2021/03/16 07:20:40;;;;;;;9.63;3.95;;;2.80;99.90;;;;;;8279498;28;20057;-68
2021/03/16 07:24:41;;;;;;;4.15;1.85;;;2.70;99.90;;;;;;8296567;28;20038;-68
2021/03/16 07:28:44;;;;;;;5.10;3.63;;;2.80;99.90;;;;;;8296733;28;20040;-68
2021/03/16 07:32:45;;;;;;;8.13;4.20;;;2.70;99.90;;;;;;8296270;28;20404;-68
2021/03/16 07:36:49;;;;;;;9.25;3.85;;;2.80;99.90;;;;;;8278826;28;20057;-68
2021/03/16 07:40:51;;;;;;;12.23;4.57;;;3.00;99.90;;;;;;8296380;28;20373;-68
2021/03/16 07:44:52;;;;;;;7.90;3.65;;;2.90;99.90;;;;;;8274380;28;20437;-68
2021/03/16 07:48:52;;;;;;;13.68;3.95;;;2.90;99.90;;;;;;8270339;28;20030;-68
2021/03/16 07:52:53;;;;;;;7.80;3.42;;;3.00;99.90;;;;;;8269810;28;20027;-68
2021/03/16 07:56:58;;;;;;;5.53;3.10;;;2.70;99.90;;;;;;8291079;28;20041;-68
2021/03/16 08:01:08;;;;;;;6.20;2.17;;;2.80;99.90;;;;;;8296006;28;20488;-68
2021/03/16 08:05:17;;;;;;;8.10;2.53;;;2.90;99.90;;;;;;8295497;28;20033;-68
2021/03/16 08:09:21;;;;;;;8.10;3.20;;;3.00;99.90;;;;;;8270015;28;20596;-67
2021/03/16 08:13:22;;;;;;;6.50;2.85;;;3.00;99.90;;;;;;8249565;28;20022;-68
2021/03/16 08:17:29;;;;;;;6.72;3.20;;;3.20;99.90;;;;;;8268966;28;20508;-67
2021/03/16 08:21:35;;;;;;;6.72;2.92;;;3.60;99.90;;;;;;8284286;28;20030;-68
2021/03/16 08:25:37;;;;;;;10.13;3.70;;;3.80;99.90;;;;;;8262439;28;20030;-67
2021/03/16 08:29:43;;;;;;;8.70;3.75;;;3.90;99.90;;;;;;8273888;28;20465;-68
2021/03/16 08:33:46;;;;;;;8.38;3.13;;;4.20;99.90;;;;;;8275879;28;20018;-69
2021/03/16 08:37:51;;;;;;;10.23;4.63;;;4.20;99.90;;;;;;8274806;28;20073;-68
2021/03/16 08:42:03;;;;;;;6.63;3.05;;;4.00;99.90;;;;;;8277935;28;20030;-69
2021/03/16 08:46:04;;;;;;;12.57;4.15;;;3.90;99.90;;;;;;8279516;28;20105;-68
2021/03/16 08:50:05;;;;;;;7.55;2.03;;;4.10;99.90;;;;;;8261438;28;20076;-66
2021/03/16 08:54:07;;;;;;;11.02;3.90;;;4.10;99.90;;;;;;8278172;28;20366;-68
2021/03/16 08:58:09;;;;;;;6.35;2.53;;;4.50;99.90;;;;;;8274304;28;20026;-68
2021/03/16 09:02:24;;;;;;;9.27;2.50;;;4.50;99.90;;;;;;8253493;28;20033;-66
2021/03/16 09:06:24;;;;;;;9.15;3.08;;;4.40;99.90;;;;;;8283501;28;20037;-68
2021/03/16 09:10:26;;;;;;;14.52;2.90;;;4.30;99.90;;;;;;8282786;28;20404;-68
2021/03/16 09:14:26;;;;;;;5.72;2.70;;;4.10;99.90;;;;;;8277849;28;20022;-68
2021/03/16 09:18:32;;;;;;;5.72;2.03;;;4.10;99.90;;;;;;8263734;28;20116;-67
2021/03/16 09:22:32;;;;;;;6.72;1.70;;;3.90;99.90;;;;;;8295064;23;20072;-63
2021/03/16 09:26:33;;;;;;;7.78;2.83;;;3.80;99.90;;;;;;8324546;28;20029;-63
2021/03/16 09:30:48;;;;;;;10.48;2.85;;;3.60;99.90;;;;;;8326446;28;20025;-63
2021/03/16 09:34:48;;;;;;;6.38;2.90;;;3.60;99.90;;;;;;8327115;28;20511;-64
2021/03/16 09:38:53;;;;;;;8.57;2.78;;;3.60;99.90;;;;;;8333350;28;20037;-63
2021/03/16 09:42:55;;;;;;;5.25;2.03;;;3.60;99.90;;;;;;8326010;28;20076;-63
2021/03/16 09:46:55;;;;;;;14.15;3.05;;;3.60;99.90;;;;;;8331115;28;20040;-63
2021/03/16 09:51:09;;;;;;;7.13;2.90;;;3.50;99.90;;;;;;8327938;28;20096;-64
2021/03/16 09:55:10;;;;;;;5.35;2.50;;;3.40;99.90;;;;;;8328422;28;20032;-63
2021/03/16 09:59:12;;;;;;;3.60;1.60;;;3.50;99.90;;;;;;8324856;28;20044;-64
2021/03/16 10:03:13;;;;;;;5.32;2.47;;;3.20;99.90;;;;;;8329619;28;20495;-63
2021/03/16 10:07:30;;;;;;;5.72;3.05;;;2.30;99.90;;;;;;8330461;28;20033;-62
2021/03/16 10:11:33;;;;;;;6.53;2.47;;;2.10;99.90;;;;;;8326907;28;20033;-63
2021/03/16 10:15:40;;;;;;;5.20;2.65;;;2.10;99.90;;;;;;8295786;28;20543;-64
2021/03/16 10:19:42;;;;;;;6.30;2.30;;;2.50;99.90;;;;;;8315699;28;20040;-64
2021/03/16 10:23:43;;;;;;;2.83;2.22;;;2.80;99.90;;;;;;8330324;28;20033;-64
2021/03/16 10:28:00;;;;;;;4.32;2.40;;;3.30;99.90;;;;;;8330476;28;20036;-63
2021/03/16 10:32:00;;;;;;;5.60;2.92;;;4.60;99.90;;;;;;8330157;28;20031;-64
2021/03/16 10:36:01;;;;;;;8.85;2.80;;;5.60;99.90;;;;;;8330717;28;20022;-64
2021/03/16 10:40:02;;;;;;;7.13;2.50;;;5.90;99.90;;;;;;8330300;28;20017;-65
2021/03/16 10:44:02;;;;;;;5.57;2.30;;;6.60;99.90;;;;;;8310940;28;20040;-64
2021/03/16 10:48:04;;;;;;;10.60;3.15;;;6.30;99.90;;;;;;8328342;28;20034;-65
2021/03/16 10:52:05;;;;;;;6.07;3.08;;;5.80;99.90;;;;;;8326776;28;20059;-64
2021/03/16 10:56:07;;;;;;;5.75;2.13;;;5.40;99.90;;;;;;8328587;28;20033;-65
2021/03/16 11:00:09;;;;;;;11.40;2.90;;;5.30;99.90;;;;;;8328120;28;20033;-65
2021/03/16 11:04:10;;;;;;;6.13;2.88;;;5.20;99.90;;;;;;8325367;28;20052;-66
2021/03/16 11:08:10;;;;;;;8.32;3.20;;;5.00;99.90;;;;;;8334065;28;20092;-65
2021/03/16 11:12:11;;;;;;;8.68;3.13;;;4.80;99.90;;;;;;8326966;28;20033;-65
2021/03/16 11:16:12;;;;;;;9.23;3.10;;;4.60;99.90;;;;;;8326549;28;20025;-64
2021/03/16 11:20:13;;;;;;;5.93;2.92;;;4.70;99.90;;;;;;8326193;28;20026;-65
2021/03/16 11:24:14;;;;;;;9.25;3.47;;;4.90;99.90;;;;;;8317456;28;20038;-64
2021/03/16 11:28:15;;;;;;;7.00;2.58;;;5.40;99.90;;;;;;8328598;28;20056;-64
2021/03/16 11:32:15;;;;;;;10.00;3.08;;;5.70;99.90;;;;;;8328016;28;20041;-64
2021/03/16 11:36:16;;;;;;;10.50;2.83;;;6.50;99.90;;;;;;8319302;28;20606;-64
2021/03/16 11:40:17;;;;;;;8.82;2.35;;;7.80;99.90;;;;;;8327932;28;20032;-64
2021/03/16 11:44:18;;;;;;;8.10;2.45;;;9.40;99.90;;;;;;8326573;28;20030;-64
2021/03/16 11:48:19;;;;;;;6.85;2.33;;;7.30;99.90;;;;;;8325529;28;20033;-63
2021/03/16 11:52:19;;;;;;;4.38;2.40;;;6.10;99.90;;;;;;8323365;28;20092;-63
2021/03/16 11:56:20;;;;;;;4.35;1.60;;;5.40;99.90;;;;;;8326292;28;20037;-64
2021/03/16 12:00:20;;;;;;;1.83;1.17;;;5.30;99.90;;;;;;8321956;28;20060;-62
2021/03/16 12:04:21;;;;;;;5.68;2.10;;;5.70;99.90;;;;;;8325526;28;20033;-64
2021/03/16 12:08:22;;;;;;;4.07;2.05;;;5.80;99.90;;;;;;8325827;28;20036;-64
2021/03/16 12:12:22;;;;;;;6.13;2.30;;;5.90;99.90;;;;;;8327264;28;20033;-64
2021/03/16 12:16:23;;;;;;;5.68;2.10;;;5.30;99.90;;;;;;8327227;28;20029;-64
2021/03/16 12:20:23;;;;;;;1.92;0.77;;;4.60;99.90;;;;;;8322647;28;20109;-64
2021/03/16 12:24:24;;;;;;;0.70;0.70;;;3.90;99.90;;;;;;8310154;28;20459;-64
2021/03/16 12:28:24;;;;;;;1.13;0.70;;;2.80;99.90;;;;;;8315922;28;20025;-64
2021/03/16 12:32:26;;;;;;;2.97;0.90;;;2.60;99.90;;;;;;8325080;28;20480;-65
2021/03/16 12:36:26;;;;;;;3.47;1.60;;;2.80;99.90;;;;;;8317746;28;20124;-65
2021/03/16 12:40:28;;;;;;;3.38;1.17;;;2.90;99.90;;;;;;8307917;28;20026;-64
2021/03/16 12:44:30;;;;;;;5.10;2.70;;;2.90;99.90;;;;;;8319173;28;20025;-64
2021/03/16 12:48:31;;;;;;;5.53;2.78;;;3.20;99.90;;;;;;8305466;28;20034;-66
2021/03/16 12:52:32;;;;;;;3.85;2.35;;;3.50;99.90;;;;;;8314296;28;20506;-67
2021/03/16 12:56:32;;;;;;;3.58;2.45;;;3.50;99.90;;;;;;8318689;28;20402;-63
2021/03/16 13:00:33;;;;;;;5.13;2.50;;;3.60;99.90;;;;;;8325802;28;20108;-64
2021/03/16 13:04:34;;;;;;;4.90;2.70;;;3.60;99.90;;;;;;8323979;28;20030;-64
2021/03/16 13:08:35;;;;;;;7.05;2.90;;;3.40;99.90;;;;;;8324192;28;20071;-64
2021/03/16 13:12:35;;;;;;;4.90;3.15;;;3.40;99.90;;;;;;8330952;28;20101;-64
2021/03/16 13:16:36;;;;;;;3.20;1.52;;;3.30;99.90;;;;;;8330831;28;20080;-63
2021/03/16 13:20:37;;;;;;;3.95;1.77;;;3.10;99.90;;;;;;8327404;28;20033;-63
2021/03/16 13:24:37;;;;;;;3.70;2.22;;;3.00;99.90;;;;;;8327522;28;20515;-64
2021/03/16 13:28:38;;;;;;;5.55;2.20;;;3.30;99.90;;;;;;8327890;28;20040;-63
2021/03/16 13:32:38;;;;;;;1.95;1.42;;;3.50;99.90;;;;;;8326513;28;20030;-64
2021/03/16 13:36:39;;;;;;;5.15;2.20;;;3.90;99.90;;;;;;8337547;28;20573;-63
2021/03/16 13:40:40;;;;;;;5.72;2.58;;;5.10;99.90;;;;;;8327300;28;20026;-63
2021/03/16 13:44:41;;;;;;;5.60;2.05;;;7.30;99.90;;;;;;8328523;28;20036;-63
2021/03/16 13:48:42;;;;;;;5.90;2.10;;;;;;;;;;8330332;28;20041;-64
2021/03/16 13:52:42;;;;;;;4.20;2.15;;;11.60;99.90;;;;;;8328414;28;20029;-64
2021/03/16 13:56:43;;;;;;;4.18;1.92;;;14.00;99.90;;;;;;8324987;28;20452;-65
2021/03/16 14:00:44;;;;;;;5.40;2.20;;;15.90;90.00;;;;;;8329402;28;20689;-64
2021/03/16 14:04:44;;;;;;;5.55;2.50;;;16.00;85.20;;;;;;8330204;28;20087;-65
2021/03/16 14:08:45;;;;;;;6.55;2.53;;;14.40;93.20;;;;;;8329071;28;20102;-66
2021/03/16 14:12:46;;;;;;;7.50;2.75;;;;;;;;;;8324499;28;20139;-66
2021/03/16 14:16:46;;;;;;;4.28;1.88;;;13.90;99.90;;;;;;8329554;28;20025;-66
2021/03/16 14:20:47;;;;;;;5.93;2.92;;;8.60;99.90;;;;;;8329939;28;20104;-65
2021/03/16 14:24:47;;;;;;;7.38;3.22;;;6.70;99.90;;;;;;8329000;28;20041;-65
2021/03/16 14:28:48;;;;;;;3.72;2.20;;;6.20;99.90;;;;;;8325135;28;20034;-66
2021/03/16 14:32:49;;;;;;;6.07;2.90;;;5.90;99.90;;;;;;8316431;28;20026;-66
2021/03/16 14:36:49;;;;;;;7.85;3.50;;;5.90;99.90;;;;;;8316491;28;20040;-65
2021/03/16 14:40:50;;;;;;;7.72;3.55;;;5.60;99.90;;;;;;8327107;28;20030;-66
2021/03/16 14:44:51;;;;;;;4.07;1.40;;;5.40;99.90;;;;;;8325680;28;20667;-66
2021/03/16 14:48:52;;;;;;;4.47;2.55;;;5.40;99.90;;;;;;8326575;28;20033;-65
2021/03/16 14:52:52;;;;;;;2.83;1.33;;;4.60;99.90;;;;;;8322298;28;20391;-65
2021/03/16 14:56:53;;;;;;;3.10;1.77;;;4.70;99.90;;;;;;8326554;28;20057;-65
2021/03/16 15:00:53;;;;;;;3.45;1.27;;;5.30;99.90;;;;;;8327884;28;20033;-65
2021/03/16 15:04:54;;;;;;;3.85;1.88;;;5.20;99.90;;;;;;8318456;28;20037;-66
2021/03/16 15:08:54;;;;;;;3.60;1.80;;;5.50;99.90;;;;;;8345975;28;20034;-66
2021/03/16 15:12:55;;;;;;;2.65;1.58;;;5.70;99.90;;;;;;8302090;28;20365;-67
2021/03/16 15:16:55;;;;;;;4.13;1.83;;;6.00;99.90;;;;;;8327250;28;20763;-66
2021/03/16 15:20:56;;;;;;;1.73;1.30;;;5.70;99.90;;;;;;8327241;28;20026;-65
2021/03/16 15:24:57;;;;;;;4.57;2.05;;;5.30;99.90;;;;;;8325936;28;20034;-66
2021/03/16 15:33:01;;;;;;;4.30;2.10;;;4.80;99.90;;;;;;8347416;22;20426;-66
2021/03/16 15:37:02;;;;;;;3.38;1.90;;;4.60;99.90;;;;;;8333024;28;20029;-66
2021/03/16 15:41:03;;;;;;;4.18;1.48;;;4.40;99.90;;;;;;8327742;28;20067;-67
2021/03/16 15:45:05;;;;;;;5.57;1.88;;;4.30;99.90;;;;;;8323894;28;20033;-67
2021/03/16 15:49:06;;;;;;;4.13;2.00;;;4.40;99.90;;;;;;8328069;28;20083;-68
2021/03/16 15:53:06;;;;;;;5.10;1.83;;;4.50;99.90;;;;;;8335613;28;20025;-69
2021/03/16 15:57:08;;;;;;;2.17;1.30;;;4.70;99.90;;;;;;8320642;28;20037;-69
2021/03/16 16:01:10;;;;;;;4.30;1.40;;;4.80;99.90;;;;;;8324129;28;20026;-68
2021/03/16 16:05:11;;;;;;;3.65;1.48;;;4.90;99.90;;;;;;8321223;28;20109;-71
2021/03/16 16:09:12;;;;;;;2.05;1.50;;;4.90;99.90;;;;;;8322822;28;20546;-69
2021/03/16 16:13:12;;;;;;;3.42;1.25;;;5.10;99.90;;;;;;8314408;28;20029;-71
2021/03/16 16:17:14;;;;;;;5.18;1.33;;;6.40;99.90;;;;;;8315867;28;20040;-69
2021/03/16 16:21:15;;;;;;;3.30;1.83;;;6.70;99.90;;;;;;8319354;28;20025;-69
2021/03/16 16:25:16;;;;;;;4.72;1.83;;;6.00;99.90;;;;;;8320171;28;20040;-69
2021/03/16 16:29:17;;;;;;;6.50;1.98;;;5.70;99.90;;;;;;8325587;28;20080;-70
2021/03/16 16:33:17;;;;;;;4.38;1.90;;;5.60;99.90;;;;;;8325766;28;20033;-68
2021/03/16 16:37:18;;;;;;;4.10;1.88;;;5.10;99.90;;;;;;8323448;28;20083;-68
2021/03/16 16:41:19;;;;;;;5.32;2.08;;;4.80;99.90;;;;;;8321253;28;20701;-69
2021/03/16 16:45:20;;;;;;;5.32;2.00;;;4.60;99.90;;;;;;8320551;28;20025;-68
2021/03/16 16:49:20;;;;;;;3.92;2.10;;;4.60;99.90;;;;;;8326048;28;20029;-69
2021/03/16 16:53:21;;;;;;;5.97;2.47;;;4.40;99.90;;;;;;8325001;28;20079;-70
2021/03/16 16:57:21;;;;;;;4.28;2.17;;;4.30;99.90;;;;;;8326121;28;20021;-69
2021/03/16 17:01:22;;;;;;;5.68;2.20;;;3.80;99.90;;;;;;8323282;28;20132;-69
2021/03/16 17:05:25;;;;;;;6.10;3.00;;;;;;;;;;8323825;28;20033;-69
2021/03/16 17:09:26;;;;;;;7.32;3.20;;;;;;;;;;8324675;28;20040;-69
2021/03/16 17:13:27;;;;;;;5.95;3.75;;;4.50;99.90;;;;;;8327520;28;20025;-69
2021/03/16 17:17:27;;;;;;;5.95;2.63;;;5.30;99.90;;;;;;8326246;28;20084;-70
2021/03/16 17:21:28;;;;;;;4.15;2.85;;;5.40;99.90;;;;;;8326430;28;20041;-69
2021/03/16 17:25:28;;;;;;;4.72;2.70;;;5.20;99.90;;;;;;8326041;28;20372;-69
2021/03/16 17:29:29;;;;;;;7.20;3.67;;;4.60;99.90;;;;;;8326215;28;20030;-69
2021/03/16 17:33:29;;;;;;;6.57;2.55;;;4.40;99.90;;;;;;8325695;28;20029;-70
2021/03/16 17:37:30;;;;;;;5.00;2.47;;;4.40;99.90;;;;;;8324313;28;20026;-69
2021/03/16 17:41:31;;;;;;;10.10;2.47;;;4.60;99.90;;;;;;8322200;28;20444;-69
2021/03/16 17:45:31;;;;;;;5.38;2.40;;;4.40;99.90;;;;;;8321645;28;20022;-69
2021/03/16 17:49:32;;;;;;;7.78;2.92;;;3.70;99.90;;;;;;8319302;28;20373;-69
2021/03/16 17:53:33;;;;;;;7.55;3.10;;;3.40;99.90;;;;;;8318247;28;20022;-69
2021/03/16 17:57:33;;;;;;;7.78;2.75;;;3.40;99.90;;;;;;8323743;28;20029;-69
2021/03/16 18:01:34;;;;;;;6.28;2.60;;;3.20;99.90;;;;;;8326626;28;20038;-69
2021/03/16 18:05:35;;;;;;;5.28;3.00;;;3.10;99.90;;;;;;8326975;28;20398;-70
2021/03/16 18:09:35;;;;;;;9.40;3.40;;;2.90;99.90;;;;;;8324659;28;20526;-69
2021/03/16 18:13:36;;;;;;;7.60;3.88;;;2.70;99.90;;;;;;8323929;28;20056;-69
2021/03/16 18:17:37;;;;;;;14.05;7.20;;;2.70;99.90;;;;;;8323389;28;20029;-69
2021/03/16 18:21:38;;;;;;;95.75;49.15;;;;;;;;;;8326604;28;20036;-70
2021/03/16 18:25:39;;;;;;;20.65;9.88;;;;;;;;;;8325720;28;20132;-70
2021/03/16 18:29:40;;;;;;;13.85;6.82;;;2.70;99.90;;;;;;8325553;28;20056;-70
2021/03/16 18:33:42;;;;;;;17.48;8.52;;;2.60;99.90;;;;;;8323639;28;20683;-69
2021/03/16 18:37:43;;;;;;;12.32;8.10;;;3.00;99.90;;;;;;8316016;28;20025;-69
2021/03/16 18:41:44;;;;;;;5.93;2.67;;;3.00;99.90;;;;;;8302212;28;21611;-73
2021/03/16 18:45:45;;;;;;;8.10;3.28;;;2.90;99.90;;;;;;8307302;28;20083;-69
2021/03/16 18:49:48;;;;;;;6.30;2.67;;;3.00;99.90;;;;;;8313826;28;20034;-70
2021/03/16 18:53:49;;;;;;;7.63;2.60;;;3.10;99.90;;;;;;8303263;28;20076;-69
2021/03/16 18:57:51;;;;;;;6.13;2.92;;;3.10;99.90;;;;;;8309641;28;20034;-70
2021/03/16 19:01:52;;;;;;;7.65;2.58;;;;;;;;;;8306725;28;20103;-70
2021/03/16 19:05:52;;;;;;;9.07;2.92;;;3.20;99.90;;;;;;8312362;28;20091;-70
2021/03/16 19:09:53;;;;;;;9.35;2.97;;;2.90;99.90;;;;;;8304248;28;20025;-70
2021/03/16 19:13:54;;;;;;;4.20;2.75;;;;;;;;;;8293229;28;20084;-70
2021/03/16 19:17:55;;;;;;;4.78;2.88;;;;;;;;;;8296888;28;20034;-72
2021/03/16 19:21:56;;;;;;;5.65;3.15;;;;;;;;;;8305867;28;20053;-70
2021/03/16 19:25:57;;;;;;;5.80;3.08;;;;;;;;;;8304420;28;20033;-72
2021/03/16 19:29:58;;;;;;;4.50;2.75;;;;;;;;;;8307151;28;20036;-70
2021/03/16 19:33:58;;;;;;;4.28;2.47;;;3.30;99.90;;;;;;8303102;28;20249;-72
2021/03/16 19:37:59;;;;;;;4.50;2.83;;;3.20;99.90;;;;;;8308291;28;20033;-70
2021/03/16 19:42:00;;;;;;;7.22;3.08;;;3.00;99.90;;;;;;8302199;28;20037;-71
2021/03/16 19:46:01;;;;;;;8.95;3.40;;;2.90;99.90;;;;;;8306060;28;20029;-72
2021/03/16 19:50:04;;;;;;;6.93;3.05;;;2.80;99.90;;;;;;8310053;28;20045;-70
2021/03/16 19:54:05;;;;;;;8.73;3.30;;;2.80;99.90;;;;;;8308979;28;20037;-70
2021/03/16 19:58:06;;;;;;;5.65;2.95;;;2.80;99.90;;;;;;8306829;28;20063;-69
2021/03/16 20:02:07;;;;;;;6.47;2.85;;;3.00;99.90;;;;;;8304745;28;20041;-70
2021/03/16 20:06:09;;;;;;;9.73;3.25;;;3.00;99.90;;;;;;8302389;28;20033;-68
2021/03/16 20:10:10;;;;;;;9.80;4.05;;;3.00;99.90;;;;;;8305108;28;20037;-67
2021/03/16 20:14:11;;;;;;;5.72;3.08;;;3.10;99.90;;;;;;8306705;28;20032;-68
2021/03/16 20:18:12;;;;;;;10.95;4.53;;;3.00;99.90;;;;;;8299713;28;20029;-68
2021/03/16 20:22:13;;;;;;;13.57;6.53;;;2.90;99.90;;;;;;8315122;28;20026;-68
2021/03/16 20:26:14;;;;;;;7.68;3.58;;;2.90;99.90;;;;;;8319158;28;20030;-68
2021/03/16 20:30:15;;;;;;;7.07;3.88;;;3.10;99.90;;;;;;8320023;28;20038;-68
2021/03/16 20:34:16;;;;;;;11.57;5.30;;;3.10;99.90;;;;;;8322492;28;20395;-67
2021/03/16 20:38:17;;;;;;;7.18;3.42;;;2.90;99.90;;;;;;8322381;28;20025;-68
2021/03/16 20:42:18;;;;;;;8.90;3.58;;;2.90;99.90;;;;;;8322743;28;20450;-67
2021/03/16 20:46:19;;;;;;;5.07;3.30;;;2.70;99.90;;;;;;8320300;28;20431;-67
2021/03/16 20:50:22;;;;;;;8.57;3.33;;;2.70;99.90;;;;;;8323110;28;20018;-67
2021/03/16 20:54:23;;;;;;;6.50;3.20;;;2.70;99.90;;;;;;8322911;28;20391;-67
2021/03/16 20:58:24;;;;;;;4.55;3.35;;;2.70;99.90;;;;;;8315054;28;20117;-68
2021/03/16 21:02:24;;;;;;;9.32;3.92;;;2.70;99.90;;;;;;8320898;28;20676;-67
2021/03/16 21:06:25;;;;;;;5.53;3.28;;;2.60;99.90;;;;;;8329265;28;20030;-68
2021/03/16 21:10:27;;;;;;;6.40;3.75;;;2.40;99.90;;;;;;8318229;28;20022;-67
2021/03/16 21:14:29;;;;;;;5.93;3.45;;;2.50;99.90;;;;;;8322254;28;20028;-67
2021/03/16 21:18:30;;;;;;;12.60;5.75;;;2.50;99.90;;;;;;8314172;28;20041;-67
2021/03/16 21:22:31;;;;;;;22.55;9.82;;;2.40;99.90;;;;;;8322887;28;20061;-68